Time;durP1;ratioP1;P1;durP2;ratioP2;P2;SDS_P1;SDS_P2;PMS_P1;PMS_P2;Temp;Humidity;BMP_temperature;BMP_pressure;BME280_temperature;BME280_humidity;BME280_pressure;Samples;Min_cycle;Max_cycle;Signal;HPM_P1;HPM_P2
2022/05/27 00:01:23;;;;;;;4.80;1.65;;;;;;;13.34;72.27;96085.61;1774224;80;21042;-63
2022/05/27 00:03:50;;;;;;;1.02;0.93;;;;;;;13.29;73.41;96083.51;1774444;80;21038;-63
2022/05/27 00:06:17;;;;;;;2.17;1.20;;;;;;;13.24;74.47;96080.92;1774253;81;20990;-63
2022/05/27 00:08:44;;;;;;;1.82;1.40;;;;;;;13.16;74.49;96081.54;1773955;80;20983;-63
2022/05/27 00:11:14;;;;;;;3.10;1.10;;;;;;;13.09;74.41;96074.62;1774171;81;20983;-63
2022/05/27 00:13:42;;;;;;;1.40;1.25;;;;;;;13.02;74.99;96079.16;1774097;80;21038;-63
2022/05/27 00:16:09;;;;;;;3.42;1.22;;;;;;;12.99;75.21;96077.91;1774244;80;20975;-63
2022/05/27 00:18:36;;;;;;;1.20;1.10;;;;;;;12.95;75.09;96070.91;1774207;81;21073;-63
2022/05/27 00:21:04;;;;;;;4.20;1.25;;;;;;;12.90;75.30;96071.03;1774280;80;20971;-63
2022/05/27 00:23:31;;;;;;;2.02;1.35;;;;;;;12.90;75.90;96069.70;1774393;80;21504;-63
2022/05/27 00:25:58;;;;;;;2.00;1.02;;;;;;;12.93;75.66;96064.80;1774262;80;21041;-63
2022/05/27 00:28:25;;;;;;;1.37;1.10;;;;;;;12.89;76.19;96069.27;1774165;80;21022;-63
2022/05/27 00:30:52;;;;;;;2.35;0.98;;;;;;;12.89;75.15;96059.99;1774247;81;21468;-63
2022/05/27 00:33:20;;;;;;;3.05;1.05;;;;;;;12.87;75.10;96064.45;1774276;80;20983;-63
2022/05/27 00:35:46;;;;;;;1.00;0.90;;;;;;;12.86;74.72;96060.06;1774190;80;20947;-63
2022/05/27 00:38:13;;;;;;;1.65;1.10;;;;;;;12.88;74.84;96060.91;1774351;80;21010;-63
2022/05/27 00:40:44;;;;;;;1.55;1.27;;;;;;;12.90;75.60;96063.51;1774195;81;20986;-63
2022/05/27 00:43:13;;;;;;;1.50;1.30;;;;;;;12.98;74.89;96061.60;1774356;80;21535;-63
2022/05/27 00:45:43;;;;;;;1.07;1.00;;;;;;;12.99;74.51;96060.23;1774329;80;21547;-63
2022/05/27 00:48:19;;;;;;;1.55;1.00;;;;;;;13.03;74.26;96054.86;1773950;80;21039;-63
2022/05/27 00:50:49;;;;;;;1.92;1.00;;;;;;;13.01;74.13;96050.94;1764593;80;21015;-63
2022/05/27 00:53:21;;;;;;;1.40;1.10;;;;;;;13.00;74.85;96050.50;1760401;80;21114;-63
2022/05/27 00:55:52;;;;;;;8.83;1.67;;;;;;;13.03;74.26;96048.23;1759761;81;21019;-63
2022/05/27 00:58:29;;;;;;;4.87;1.20;;;;;;;13.04;74.38;96052.19;1760553;81;21054;-63
2022/05/27 01:00:56;;;;;;;1.40;1.27;;;;;;;13.05;74.12;96053.05;1760564;81;21026;-63
2022/05/27 01:03:26;;;;;;;2.35;1.30;;;;;;;13.05;74.80;96059.22;1759837;81;21062;-63
2022/05/27 01:05:54;;;;;;;1.67;1.25;;;;;;;13.00;74.38;96055.80;1760510;81;21050;-63
2022/05/27 01:08:24;;;;;;;2.62;1.70;;;;;;;12.98;74.77;96055.84;1760724;81;21039;-63
2022/05/27 01:11:17;;;;;;;2.67;1.15;;;;;;;13.02;74.44;96054.45;1760376;81;20987;-63
2022/05/27 01:14:14;;;;;;;5.97;2.50;;;;;;;13.03;74.03;96049.13;1760691;81;21102;-63
2022/05/27 01:17:08;;;;;;;4.10;3.40;;;;;;;12.92;73.96;96058.60;1760368;80;21054;-63
2022/05/27 01:20:18;;;;;;;4.08;3.33;;;;;;;12.90;74.08;96058.21;1760256;81;21062;-63
2022/05/27 01:25:46;;;;;;;4.58;3.45;;;;;;;12.75;73.35;96050.12;1747752;81;20960;-63
2022/05/27 01:28:34;;;;;;;4.67;3.22;;;;;;;12.76;74.18;96047.45;1759928;81;21051;-63
2022/05/27 01:31:33;;;;;;;5.42;3.70;;;;;;;12.80;74.40;96043.41;1752393;81;21011;-63
2022/05/27 01:34:36;;;;;;;3.90;3.27;;;;;;;12.80;74.13;96047.39;1760018;81;21052;-63
2022/05/27 01:37:27;;;;;;;5.78;2.62;;;;;;;12.78;74.16;96049.62;1759232;81;20992;-63
2022/05/27 01:40:20;;;;;;;3.62;2.52;;;;;;;12.73;74.42;96042.23;1760420;81;20991;-63
2022/05/27 01:43:15;;;;;;;2.30;2.15;;;;;;;12.68;74.01;96045.42;1760911;81;20980;-63
2022/05/27 01:46:20;;;;;;;2.10;1.90;;;;;;;12.69;74.72;96050.25;1760405;81;21058;-63
2022/05/27 01:49:30;;;;;;;3.85;1.82;;;;;;;12.65;75.31;96047.23;1760471;81;21046;-63
2022/05/27 01:52:19;;;;;;;2.98;2.25;;;;;;;12.67;75.57;96049.41;1760326;81;21504;-63
2022/05/27 01:55:13;;;;;;;3.62;2.00;;;;;;;12.63;75.69;96035.83;1760383;81;21067;-63
2022/05/27 01:57:48;;;;;;;3.58;1.90;;;;;;;12.65;76.97;96040.19;1759950;81;21034;-63
2022/05/27 02:00:25;;;;;;;5.50;2.10;;;;;;;12.74;75.51;96041.31;1760459;81;21497;-63
2022/05/27 02:03:09;;;;;;;3.67;1.90;;;;;;;12.79;75.68;96041.22;1759989;81;21070;-63
2022/05/27 02:05:56;;;;;;;2.50;1.92;;;;;;;12.80;75.43;96041.66;1760270;81;21044;-63
2022/05/27 02:08:34;;;;;;;1.60;1.50;;;;;;;12.79;75.95;96043.88;1760318;81;21051;-63
2022/05/27 02:11:08;;;;;;;2.45;1.60;;;;;;;12.82;75.40;96041.16;1745400;81;21027;-63
2022/05/27 02:13:55;;;;;;;2.70;1.70;;;;;;;12.82;75.42;96038.97;1760106;80;20976;-63
2022/05/27 02:16:35;;;;;;;2.90;1.40;;;;;;;12.87;75.52;96044.58;1760528;81;20971;-63
2022/05/27 02:19:10;;;;;;;2.02;1.52;;;;;;;12.96;75.39;96033.81;1760414;80;21140;-63
2022/05/27 02:21:48;;;;;;;3.87;1.70;;;;;;;13.01;75.40;96039.48;1760137;80;21015;-63
2022/05/27 02:24:38;;;;;;;5.60;1.52;;;;;;;13.02;75.49;96035.91;1759901;81;21019;-63
2022/05/27 02:27:22;;;;;;;3.15;1.40;;;;;;;13.15;75.32;96042.68;1760252;81;21469;-63
2022/05/27 02:29:53;;;;;;;1.55;1.30;;;;;;;13.21;74.73;96042.11;1760373;81;21536;-63
2022/05/27 02:32:35;;;;;;;2.27;1.40;;;;;;;13.25;74.34;96040.25;1760248;80;21060;-63
2022/05/27 02:35:15;;;;;;;1.67;1.50;;;;;;;13.26;75.39;96039.36;1760348;81;21026;-63
2022/05/27 02:37:47;;;;;;;1.92;1.77;;;;;;;13.34;74.62;96041.88;1760264;81;21480;-63
2022/05/27 02:40:19;;;;;;;2.65;1.30;;;;;;;13.34;74.08;96038.77;1760249;81;21012;-63
2022/05/27 02:43:02;;;;;;;2.25;1.45;;;;;;;13.34;74.06;96033.92;1760458;80;21465;-63
2022/05/27 02:46:04;;;;;;;1.40;1.30;;;;;;;13.32;74.38;96033.95;1760643;80;21060;-63
2022/05/27 02:48:42;;;;;;;3.08;1.57;;;;;;;13.34;74.99;96041.88;1760448;81;21010;-63
2022/05/27 02:51:36;;;;;;;2.80;1.60;;;;;;;13.34;74.68;96033.47;1746240;81;21022;-63
2022/05/27 02:54:38;;;;;;;1.70;1.60;;;;;;;13.29;74.71;96038.45;1781717;80;21007;-63
2022/05/27 02:57:13;;;;;;;3.08;1.60;;;;;;;13.21;75.29;96036.81;1781377;80;21011;-63
2022/05/27 02:59:41;;;;;;;1.75;1.65;;;;;;;13.10;75.58;96030.89;1746410;82;21022;-63
2022/05/27 03:02:12;;;;;;;3.30;1.50;;;;;;;13.13;75.59;96036.57;1781626;80;21006;-63
2022/05/27 03:04:49;;;;;;;3.22;1.75;;;;;;;13.17;75.62;96032.93;1744250;82;21070;-63
2022/05/27 03:07:45;;;;;;;2.40;1.80;;;;;;;13.19;75.17;96035.09;1754301;81;21050;-63
2022/05/27 03:10:32;;;;;;;2.17;1.37;;;;;;;13.21;75.28;96037.27;1753882;81;21020;-63
2022/05/27 03:13:20;;;;;;;1.52;1.30;;;;;;;13.17;76.32;96043.07;1747084;81;21023;-63
2022/05/27 03:16:16;;;;;;;2.00;1.25;;;;;;;13.19;75.85;96043.05;1754586;81;20984;-63
2022/05/27 03:18:59;;;;;;;1.47;1.37;;;;;;;13.16;75.84;96039.14;1768690;80;21003;-63
2022/05/27 03:21:43;;;;;;;3.10;1.57;;;;;;;13.15;76.23;96039.61;1768065;81;21073;-63
2022/05/27 03:24:57;;;;;;;2.75;1.47;;;;;;;13.19;76.05;96035.09;1767995;81;21007;-63
2022/05/27 03:27:44;;;;;;;3.47;1.80;;;;;;;13.26;77.19;96038.50;1769154;80;21010;-63
2022/05/27 03:30:34;;;;;;;1.72;1.62;;;;;;;13.30;77.00;96043.70;1768569;80;20959;-63
2022/05/27 03:33:29;;;;;;;2.90;1.67;;;;;;;13.38;76.83;96042.20;1768393;80;21057;-63
2022/05/27 03:36:01;;;;;;;3.62;2.25;;;;;;;13.42;77.75;96035.48;1763804;81;21006;-63
2022/05/27 03:38:51;;;;;;;4.47;3.17;;;;;;;13.45;76.28;96041.16;1768837;81;21026;-63
2022/05/27 03:41:35;;;;;;;4.87;3.92;;;;;;;13.48;76.05;96041.55;1768732;80;20951;-63
2022/05/27 03:44:02;;;;;;;4.90;3.10;;;;;;;13.49;76.44;96042.85;1768165;81;21034;-63
2022/05/27 03:46:33;;;;;;;4.87;3.20;;;;;;;13.59;76.13;96035.56;1747188;81;20987;-63
2022/05/27 03:49:01;;;;;;;3.02;2.50;;;;;;;13.67;76.81;96040.69;1768558;80;21002;-63
2022/05/27 03:51:45;;;;;;;4.17;2.60;;;;;;;13.79;77.02;96039.08;1768391;80;21010;-63
2022/05/27 03:54:12;;;;;;;5.97;2.45;;;;;;;13.86;77.28;96044.66;1767796;81;21062;-63
2022/05/27 03:56:42;;;;;;;4.53;2.37;;;;;;;13.94;77.20;96035.18;1768680;80;21018;-63
2022/05/27 03:59:12;;;;;;;8.10;2.55;;;;;;;14.03;76.57;96032.28;1768439;80;21030;-63
2022/05/27 04:01:42;;;;;;;5.37;4.05;;;;;;;14.06;75.86;96037.07;1768690;81;21030;-63
2022/05/27 04:04:13;;;;;;;6.85;6.08;;;;;;;14.14;75.54;96024.06;1768343;80;21034;-63
2022/05/27 04:06:40;;;;;;;8.83;7.92;;;;;;;14.18;74.96;96028.36;1768548;81;21536;-63
2022/05/27 04:09:07;;;;;;;8.30;7.50;;;;;;;14.19;74.56;96030.13;1768653;81;21023;-63
2022/05/27 04:11:34;;;;;;;11.50;10.00;;;;;;;14.30;75.47;96022.74;1768310;80;20979;-63
2022/05/27 04:14:01;;;;;;;10.82;7.58;;;;;;;14.41;75.25;96026.43;1768456;81;21033;-63
2022/05/27 04:16:28;;;;;;;7.22;6.00;;;;;;;14.51;74.82;96023.94;1768423;80;21058;-63
2022/05/27 04:18:55;;;;;;;11.97;9.48;;;;;;;14.54;74.51;96013.73;1746995;81;21528;-63
2022/05/27 04:21:23;;;;;;;13.55;10.88;;;;;;;14.57;74.43;96016.33;1768328;81;21027;-63
2022/05/27 04:23:50;;;;;;;28.52;20.02;;;;;;;14.59;74.61;96016.70;1768400;80;21026;-63
2022/05/27 04:26:18;;;;;;;27.58;20.17;;;;;;;14.64;74.30;96020.52;1768636;80;21014;-63
2022/05/27 04:28:45;;;;;;;27.27;15.50;;;;;;;14.65;74.25;96018.30;1768376;80;21045;-63
2022/05/27 04:31:12;;;;;;;15.45;13.30;;;;;;;14.62;74.20;96028.55;1768725;80;21480;-63
2022/05/27 04:33:39;;;;;;;16.97;11.43;;;;;;;14.57;74.51;96025.62;1768239;80;21497;-63
2022/05/27 04:36:07;;;;;;;15.38;10.95;;;;;;;14.57;74.56;96029.59;1768752;80;20986;-63
2022/05/27 04:38:35;;;;;;;14.85;10.88;;;;;;;14.60;74.78;96026.85;1768507;80;21026;-63
2022/05/27 04:41:01;;;;;;;13.10;10.93;;;;;;;14.64;74.35;96032.47;1747031;81;21504;-63
2022/05/27 04:43:28;;;;;;;8.80;7.50;;;;;;;14.71;74.18;96029.60;1768795;80;20963;-63
2022/05/27 04:45:54;;;;;;;8.93;7.15;;;;;;;14.74;74.14;96031.34;1768232;80;20983;-63
2022/05/27 04:48:22;;;;;;;10.03;6.12;;;;;;;14.73;75.00;96032.70;1768181;80;20998;-63
2022/05/27 04:50:49;;;;;;;8.25;6.53;;;;;;;14.77;75.11;96028.59;1768596;80;21066;-63
2022/05/27 04:53:16;;;;;;;6.58;5.67;;;;;;;14.88;75.24;96020.30;1768496;80;21458;-63
2022/05/27 05:06:48;;;;;;;4.40;3.80;;;;;;;16.64;70.89;96009.80;1860200;77;22915;-62
2022/05/27 05:09:15;;;;;;;6.72;4.12;;;;;;;16.48;70.35;96009.92;1800027;78;21455;-63
2022/05/27 05:11:41;;;;;;;6.75;3.02;;;;;;;16.35;70.04;96013.01;1830502;78;21049;-62
2022/05/27 05:14:08;;;;;;;7.25;3.90;;;;;;;16.33;69.35;96007.33;1831151;78;21030;-63
2022/05/27 05:16:35;;;;;;;5.53;4.03;;;;;;;16.35;70.71;96001.03;1832431;78;21000;-64
2022/05/27 05:19:02;;;;;;;8.00;4.85;;;;;;;16.35;70.71;96001.03;1831234;78;21046;-63
2022/05/27 05:21:28;;;;;;;6.47;3.90;;;;;;;16.50;71.35;96010.75;1832000;78;20987;-65
2022/05/27 05:23:55;;;;;;;4.03;3.62;;;;;;;16.53;71.44;96001.31;1830604;78;21089;-63
2022/05/27 05:26:21;;;;;;;4.20;3.35;;;;;;;16.64;71.49;96015.13;1830986;78;21015;-64
2022/05/27 05:28:48;;;;;;;6.12;3.42;;;;;;;16.67;72.45;96017.68;1831711;78;20984;-65
2022/05/27 05:31:16;;;;;;;4.45;2.12;;;;;;;16.69;72.00;96013.64;1831444;78;21541;-66
2022/05/27 05:33:43;;;;;;;4.95;2.50;;;;;;;16.70;72.33;96010.91;1832410;78;20979;-66
2022/05/27 05:36:10;;;;;;;2.72;2.30;;;;;;;16.75;71.80;96014.73;1830995;78;21110;-64
2022/05/27 05:38:38;;;;;;;3.45;2.67;;;;;;;16.75;71.80;96014.73;1831244;78;21528;-67
2022/05/27 05:41:06;;;;;;;4.78;2.98;;;;;;;16.76;71.61;96018.69;1830596;78;21504;-64
2022/05/27 05:43:33;;;;;;;5.30;2.33;;;;;;;16.85;71.34;96007.71;1831717;78;21065;-65
2022/05/27 05:46:00;;;;;;;4.80;2.80;;;;;;;17.16;71.06;96015.92;1831868;78;20998;-64
2022/05/27 05:48:27;;;;;;;5.15;2.47;;;;;;;17.46;70.32;96003.21;1831037;78;21033;-63
2022/05/27 05:50:53;;;;;;;2.47;1.30;;;;;;;17.79;67.47;96001.91;1830623;78;21049;-65
2022/05/27 05:53:21;;;;;;;2.87;1.22;;;;;;;17.90;61.03;95998.38;1823375;78;20967;-64
2022/05/27 05:55:47;;;;;;;2.27;1.40;;;;;;;18.01;60.97;96006.80;1833023;78;20943;-64
2022/05/27 05:58:14;;;;;;;4.33;1.95;;;;;;;18.36;62.99;95998.64;1833270;78;20994;-64
2022/05/27 06:00:40;;;;;;;4.05;1.32;;;;;;;18.36;62.99;95998.64;1831651;78;21044;-65
2022/05/27 06:03:08;;;;;;;2.87;1.25;;;;;;;18.58;62.69;95995.92;1831289;78;21069;-64
2022/05/27 06:05:37;;;;;;;1.40;1.15;;;;;;;18.74;61.67;95995.24;1825336;78;21012;-65
2022/05/27 06:08:05;;;;;;;2.25;1.10;;;;;;;18.96;60.45;96000.06;1812785;79;21035;-64
2022/05/27 06:10:31;;;;;;;1.37;1.00;;;;;;;19.18;59.64;95992.41;1816137;79;21107;-65
2022/05/27 06:12:59;;;;;;;1.42;0.93;;;;;;;19.23;55.47;95989.05;1805433;79;21026;-65
2022/05/27 06:15:26;;;;;;;3.92;1.50;;;;;;;19.06;54.74;95992.50;1809936;79;21027;-64
2022/05/27 06:17:53;;;;;;;5.10;3.83;;;;;;;18.93;56.78;95999.34;1808360;79;20983;-66
2022/05/27 06:20:20;;;;;;;6.03;5.45;;;;;;;18.94;57.90;95993.91;1816092;79;20971;-65
2022/05/27 06:22:47;;;;;;;2.00;1.55;;;;;;;19.13;58.48;96006.47;1812375;79;20995;-64
2022/05/27 06:25:14;;;;;;;5.83;3.20;;;;;;;19.20;55.08;95995.86;1804960;79;21010;-65
2022/05/27 06:27:40;;;;;;;2.05;1.42;;;;;;;19.29;55.20;95980.73;1804149;79;21558;-66
2022/05/27 06:35:41;;;;;;;3.10;1.22;;;;;;;19.78;54.32;95981.11;1786163;80;21024;-64
2022/05/27 06:38:09;;;;;;;3.47;1.30;;;;;;;19.92;53.76;95980.89;1786206;80;21043;-64
2022/05/27 06:40:35;;;;;;;2.92;1.20;;;;;;;20.07;53.43;95982.33;1786500;80;21004;-64
2022/05/27 06:43:03;;;;;;;1.17;1.07;;;;;;;20.22;52.46;95986.05;1776949;80;20983;-63
2022/05/27 06:45:29;;;;;;;2.20;1.22;;;;;;;20.28;51.46;95977.69;1798969;79;21019;-64
2022/05/27 06:47:56;;;;;;;1.27;1.17;;;;;;;20.41;50.73;95977.97;1817258;79;21131;-64
2022/05/27 06:50:23;;;;;;;1.75;1.17;;;;;;;20.48;51.45;95973.99;1817420;79;21001;-64
2022/05/27 06:52:50;;;;;;;1.22;1.12;;;;;;;20.70;53.34;95972.92;1817955;79;20986;-63
2022/05/27 06:55:17;;;;;;;2.70;1.20;;;;;;;20.93;52.90;95968.53;1814204;79;21031;-64
2022/05/27 06:57:44;;;;;;;1.85;1.10;;;;;;;21.13;53.19;95980.02;1810878;79;20979;-64
2022/05/27 07:00:12;;;;;;;4.67;1.20;;;;;;;21.20;51.27;95973.38;1809010;79;20978;-64
2022/05/27 07:02:39;;;;;;;3.27;1.47;;;;;;;21.29;50.25;95976.02;1803179;79;21077;-64
2022/05/27 07:05:07;;;;;;;3.17;1.12;;;;;;;21.35;51.23;95963.62;1812707;79;21003;-64
2022/05/27 07:07:34;;;;;;;1.55;1.00;;;;;;;21.43;50.58;95969.45;1809599;79;21534;-65
2022/05/27 07:10:01;;;;;;;1.00;1.00;;;;;;;21.53;50.97;95965.78;1782308;79;20993;-68
2022/05/27 07:12:27;;;;;;;3.80;1.57;;;;;;;21.63;50.02;95959.42;1810313;79;20993;-64
2022/05/27 07:14:54;;;;;;;3.95;1.60;;;;;;;21.72;49.44;95961.11;1808561;79;21040;-67
2022/05/27 07:17:20;;;;;;;3.22;1.20;;;;;;;21.72;48.36;95956.20;1808859;79;21055;-65
2022/05/27 07:19:47;;;;;;;4.58;1.10;;;;;;;21.51;48.46;95955.59;1811898;78;21445;-67
2022/05/27 07:22:14;;;;;;;2.95;1.20;;;;;;;21.63;50.18;95952.23;1813220;78;21065;-65
2022/05/27 07:24:42;;;;;;;4.80;1.30;;;;;;;21.59;49.93;95954.69;1814357;78;21022;-65
2022/05/27 07:27:09;;;;;;;2.62;1.30;;;;;;;21.45;50.07;95943.39;1823734;78;20963;-67
2022/05/27 07:29:36;;;;;;;4.30;1.30;;;;;;;21.25;48.99;95939.09;1810476;78;21005;-67
2022/05/27 07:32:04;;;;;;;2.25;1.17;;;;;;;21.22;48.81;95945.98;1818720;78;20993;-69
2022/05/27 07:34:31;;;;;;;1.40;1.30;;;;;;;21.12;49.49;95947.44;1814418;78;21065;-67
2022/05/27 07:36:58;;;;;;;3.35;1.20;;;;;;;21.01;48.70;95956.53;1809397;78;21605;-67
2022/05/27 07:39:25;;;;;;;3.02;1.15;;;;;;;21.08;47.94;95947.20;1812786;78;21002;-65
2022/05/27 07:41:52;;;;;;;1.20;1.05;;;;;;;21.10;46.96;95952.88;1813635;78;20974;-65
2022/05/27 07:44:19;;;;;;;1.72;1.10;;;;;;;21.02;46.72;95952.92;1809907;78;21009;-67
2022/05/27 07:46:46;;;;;;;4.80;4.03;;;;;;;20.83;45.61;95944.98;1820810;78;21617;-69
2022/05/27 07:49:12;;;;;;;3.62;1.62;;;;;;;20.96;46.55;95945.59;1822799;78;20968;-65
2022/05/27 07:51:39;;;;;;;1.77;0.93;;;;;;;21.32;49.10;95939.16;1814319;78;21516;-68
2022/05/27 07:54:05;;;;;;;2.20;1.20;;;;;;;21.52;46.07;95948.81;1820003;78;20926;-68
2022/05/27 07:56:31;;;;;;;1.25;1.15;;;;;;;21.47;46.83;95941.94;1815932;78;20997;-65
2022/05/27 07:58:58;;;;;;;3.05;1.20;;;;;;;21.49;46.50;95949.44;1819072;78;21041;-69
2022/05/27 08:01:25;;;;;;;3.98;0.98;;;;;;;21.52;45.56;95959.55;1818578;78;20974;-65
2022/05/27 08:03:52;;;;;;;3.30;1.30;;;;;;;21.54;45.14;95946.87;1818840;78;21527;-65
2022/05/27 08:06:19;;;;;;;2.92;1.00;;;;;;;21.81;47.10;95944.94;1822312;78;21053;-65
2022/05/27 08:08:46;;;;;;;1.10;1.00;;;;;;;21.53;43.81;95951.02;1816483;79;21512;-67
2022/05/27 08:11:13;;;;;;;6.10;2.27;;;;;;;21.64;46.93;95946.37;1804321;79;21066;-66
2022/05/27 08:13:41;;;;;;;3.70;1.30;;;;;;;21.69;46.87;95945.63;1800433;79;21024;-68
2022/05/27 08:16:07;;;;;;;1.47;1.15;;;;;;;21.77;47.25;95954.11;1799948;80;21028;-67
2022/05/27 08:18:34;;;;;;;3.05;1.00;;;;;;;21.68;45.96;95953.31;1800178;80;21083;-65
2022/05/27 08:21:01;;;;;;;1.00;0.90;;;;;;;21.49;46.57;95944.93;1799305;80;21537;-65
2022/05/27 08:23:28;;;;;;;2.22;1.00;;;;;;;21.39;46.89;95943.72;1799961;79;21035;-63
2022/05/27 08:25:56;;;;;;;4.50;1.20;;;;;;;21.36;46.91;95942.52;1799778;79;21004;-65
2022/05/27 08:28:24;;;;;;;3.37;1.20;;;;;;;21.60;46.25;95949.23;1800501;80;20980;-64
2022/05/27 08:30:55;;;;;;;3.25;1.35;;;;;;;21.71;45.14;95934.33;1800725;80;20992;-64
2022/05/27 08:33:23;;;;;;;2.55;1.10;;;;;;;21.85;44.91;95934.41;1800708;80;21048;-64
2022/05/27 08:38:37;;;;;;;2.10;1.10;;;;;;;22.23;44.05;95940.26;1800732;80;21487;-65
2022/05/27 08:41:51;;;;;;;1.95;0.93;;;;;;;22.39;44.06;95924.55;1800575;80;21536;-65
2022/05/27 08:44:41;;;;;;;2.58;1.30;;;;;;;22.60;45.85;95932.68;1800282;80;21083;-67
2022/05/27 08:47:37;;;;;;;4.03;0.82;;;;;;;22.85;44.83;95927.97;1799378;80;21004;-64
2022/05/27 08:50:19;;;;;;;2.85;1.20;;;;;;;22.77;44.88;95940.18;1799687;80;21095;-64
2022/05/27 08:52:50;;;;;;;2.72;1.12;;;;;;;22.67;43.34;95929.98;1800628;79;21020;-64
2022/05/27 09:01:29;;;;;;;1.23;0.90;;;;;;;22.53;44.66;95927.73;1819698;79;20975;-64
2022/05/27 09:04:19;;;;;;;2.12;1.10;;;;;;;22.69;42.78;95930.75;1819186;79;21050;-64
2022/05/27 09:06:54;;;;;;;1.10;1.00;;;;;;;22.44;43.00;95931.86;1816562;79;21482;-64
2022/05/27 09:09:28;;;;;;;1.22;1.00;;;;;;;22.78;41.91;95926.65;1814581;79;21058;-64
2022/05/27 09:12:17;;;;;;;1.20;1.10;;;;;;;22.81;42.54;95923.77;1814676;79;21503;-64
2022/05/27 09:15:17;;;;;;;1.42;1.12;;;;;;;22.93;44.46;95928.88;1814467;79;20979;-64
2022/05/27 09:17:51;;;;;;;1.37;1.07;;;;;;;23.14;40.67;95928.03;1815126;79;21011;-64
2022/05/27 09:20:32;;;;;;;1.65;1.00;;;;;;;22.96;40.62;95925.13;1814542;79;20987;-64
2022/05/27 09:23:16;;;;;;;1.92;1.20;;;;;;;23.26;42.55;95929.95;1813277;79;21073;-64
2022/05/27 09:26:12;;;;;;;2.20;1.30;;;;;;;23.51;41.04;95913.08;1813007;79;21046;-64
2022/05/27 09:28:56;;;;;;;3.55;1.20;;;;;;;23.65;40.25;95918.91;1814495;79;21586;-64
2022/05/27 09:31:37;;;;;;;2.08;1.10;;;;;;;23.75;41.02;95932.19;1814317;79;21544;-64
2022/05/27 09:34:04;;;;;;;2.52;1.22;;;;;;;23.59;40.77;95921.16;1814837;79;21007;-64
2022/05/27 09:36:47;;;;;;;0.98;0.93;;;;;;;23.74;41.59;95912.09;1814367;79;21489;-64
2022/05/27 09:39:19;;;;;;;1.27;1.10;;;;;;;24.00;40.93;95900.92;1815122;79;21038;-64
2022/05/27 09:42:13;;;;;;;1.67;1.00;;;;;;;24.11;40.53;95901.05;1815076;79;21015;-64
2022/05/27 09:44:55;;;;;;;1.85;1.10;;;;;;;24.03;40.06;95900.71;1814762;79;20987;-64
2022/05/27 09:47:29;;;;;;;3.98;1.20;;;;;;;24.33;41.42;95906.34;1815141;79;20979;-64
2022/05/27 09:50:04;;;;;;;2.15;1.30;;;;;;;23.90;39.60;95906.06;1815315;79;21473;-64
2022/05/27 09:52:36;;;;;;;1.35;1.07;;;;;;;23.85;40.74;95902.80;1814875;79;21007;-64
2022/05/27 09:55:46;;;;;;;3.77;1.42;;;;;;;23.94;40.38;95900.86;1814743;79;21019;-64
2022/05/27 09:58:13;;;;;;;1.72;1.27;;;;;;;23.32;38.81;95903.97;1798931;79;20963;-64
2022/05/27 10:00:51;;;;;;;0.88;0.88;;;;;;;23.35;40.06;95904.73;1815235;79;21062;-64
2022/05/27 10:03:39;;;;;;;1.22;1.02;;;;;;;23.22;40.25;95912.25;1815077;79;21027;-64
2022/05/27 10:06:15;;;;;;;1.30;1.00;;;;;;;23.28;40.05;95906.49;1814634;79;21477;-64
2022/05/27 10:08:56;;;;;;;1.52;1.17;;;;;;;23.09;40.44;95900.05;1815180;79;21477;-64
2022/05/27 10:11:30;;;;;;;1.67;1.17;;;;;;;22.90;40.89;95907.52;1815114;79;21504;-64
2022/05/27 10:14:39;;;;;;;2.50;1.10;;;;;;;22.64;41.12;95893.86;1815144;79;21003;-64
2022/05/27 10:17:09;;;;;;;1.67;1.30;;;;;;;22.90;42.05;95892.23;1813129;79;21031;-64
2022/05/27 10:19:38;;;;;;;4.17;1.20;;;;;;;23.21;41.00;95889.00;1814813;79;20995;-64
2022/05/27 10:22:21;;;;;;;4.97;1.50;;;;;;;23.67;42.92;95879.27;1814907;79;21523;-64
2022/05/27 10:24:59;;;;;;;6.47;2.40;;;;;;;23.83;41.16;95872.89;1815399;79;21083;-64
2022/05/27 10:27:36;;;;;;;4.55;2.30;;;;;;;24.15;39.55;95871.58;1814859;79;21530;-64
2022/05/27 10:30:12;;;;;;;5.67;3.30;;;;;;;24.19;40.24;95877.16;1814085;79;21572;-64
2022/05/27 10:32:43;;;;;;;3.50;2.33;;;;;;;24.26;38.62;95874.02;1757797;81;20999;-64
2022/05/27 10:35:30;;;;;;;1.50;1.40;;;;;;;23.61;38.97;95868.91;1730612;83;21019;-64
2022/05/27 10:38:37;;;;;;;4.12;2.00;;;;;;;23.31;38.06;95860.52;1760746;81;20999;-64
2022/05/27 10:41:24;;;;;;;8.75;3.85;;;;;;;23.30;41.49;95866.84;1729085;82;20976;-64
2022/05/27 10:44:02;;;;;;;2.02;1.82;;;;;;;23.51;39.30;95855.64;1730692;82;21130;-64
2022/05/27 10:46:39;;;;;;;3.27;1.42;;;;;;;23.59;39.37;95843.04;1726871;83;21002;-64
2022/05/27 10:49:40;;;;;;;2.70;1.65;;;;;;;23.77;39.01;95840.48;1759969;81;21035;-64
2022/05/27 10:52:24;;;;;;;4.22;2.00;;;;;;;23.94;38.72;95839.36;1730271;83;21018;-64
2022/05/27 10:55:16;;;;;;;4.05;3.20;;;;;;;23.72;40.06;95837.20;1726797;83;21531;-64
2022/05/27 11:04:21;;;;;;;2.67;1.98;;;;;;;24.61;39.59;95828.45;1727526;83;21006;-64
2022/05/27 11:06:53;;;;;;;8.83;4.55;;;;;;;25.20;39.82;95822.44;1759572;81;21034;-64
2022/05/27 11:09:38;;;;;;;7.90;4.65;;;;;;;25.32;38.53;95808.54;1728885;83;21027;-64
2022/05/27 11:15:10;;;;;;;4.20;2.70;;;;;;;25.12;36.69;95823.47;1726918;83;21530;-64
2022/05/27 11:15:11;;;;;;;3.22;2.33;;;;;;;24.86;37.28;95820.82;1758829;81;21077;-64
2022/05/27 11:18:16;;;;;;;5.22;3.95;;;;;;;24.45;37.51;95817.00;1730593;81;21058;-64
2022/05/27 11:21:00;;;;;;;7.35;2.90;;;;;;;24.41;39.19;95802.84;1726899;82;21022;-64
2022/05/27 11:23:50;;;;;;;3.83;2.52;;;;;;;24.56;39.49;95803.14;1759405;81;21023;-64
2022/05/27 11:27:04;;;;;;;3.42;2.45;;;;;;;25.12;39.17;95789.72;1730926;82;21623;-64
2022/05/27 11:29:37;;;;;;;;;;;;;;;25.19;36.98;95781.58;1729580;82;21082;-64
2022/05/27 11:32:35;;;;;;;4.53;2.70;;;;;;;25.25;39.36;95785.20;1757748;82;20126;-64
2022/05/27 11:35:25;;;;;;;6.08;3.65;;;;;;;25.24;40.11;95771.30;1730252;83;21627;-63
2022/05/27 11:38:32;;;;;;;3.30;2.10;;;;;;;24.90;36.76;95786.39;1726996;82;21486;-64
2022/05/27 11:41:20;;;;;;;7.25;5.08;;;;;;;24.90;36.22;95768.36;1737035;81;21062;-64
2022/05/27 11:44:03;;;;;;;8.53;6.05;;;;;;;25.10;39.75;95771.41;1730221;83;21035;-64
2022/05/27 11:47:00;;;;;;;12.40;6.47;;;;;;;25.18;37.12;95763.66;1727435;83;20994;-64
2022/05/27 11:49:37;;;;;;;6.28;3.10;;;;;;;24.94;35.95;95756.84;1697340;84;21006;-64
2022/05/27 11:52:38;;;;;;;4.50;3.02;;;;;;;24.89;36.60;95777.41;1759621;81;21034;-64
2022/05/27 11:55:44;;;;;;;5.37;2.35;;;;;;;25.10;35.95;95761.96;1730610;82;21477;-64
2022/05/27 11:58:36;;;;;;;6.17;2.72;;;;;;;25.16;36.30;95751.61;1673028;85;21043;-64
2022/05/27 12:01:17;;;;;;;5.80;2.83;;;;;;;25.68;35.58;95744.14;1743714;81;21042;-64
2022/05/27 12:04:01;;;;;;;4.37;2.75;;;;;;;26.41;34.99;95736.23;1730316;83;21027;-64
2022/05/27 12:06:33;;;;;;;4.87;2.30;;;;;;;26.57;35.15;95731.83;1718541;82;21003;-64
2022/05/27 12:09:07;;;;;;;2.58;2.20;;;;;;;26.66;34.79;95736.52;1823476;79;21045;-64
2022/05/27 12:11:42;;;;;;;2.83;1.47;;;;;;;26.40;34.89;95731.78;1823113;79;20979;-64
2022/05/27 12:14:17;;;;;;;4.03;1.70;;;;;;;26.53;35.91;95736.64;1823424;78;20994;-64
2022/05/27 12:16:48;;;;;;;3.27;1.40;;;;;;;26.57;35.97;95729.62;1823529;79;21011;-64
2022/05/27 12:19:26;;;;;;;2.80;1.40;;;;;;;26.31;36.37;95722.57;1823801;78;21483;-64
2022/05/27 12:22:15;;;;;;;2.98;2.08;;;;;;;26.96;36.67;95716.92;1823239;78;20998;-64
2022/05/27 12:24:49;;;;;;;1.32;1.20;;;;;;;26.81;33.64;95726.27;1791507;79;21453;-64
2022/05/27 12:27:19;;;;;;;1.45;1.27;;;;;;;27.12;34.92;95718.36;1823356;78;20963;-64
2022/05/27 12:29:49;;;;;;;1.82;1.30;;;;;;;27.63;35.52;95711.80;1823273;78;20976;-64
2022/05/27 12:32:20;;;;;;;1.87;1.37;;;;;;;27.47;33.41;95711.86;1823123;79;21118;-64
2022/05/27 12:34:49;;;;;;;1.90;1.30;;;;;;;26.66;34.22;95720.74;1823197;78;21097;-64
2022/05/27 12:37:24;;;;;;;1.30;1.20;;;;;;;26.50;35.59;95712.48;1823184;78;21524;-64
2022/05/27 12:40:18;;;;;;;1.82;1.40;;;;;;;26.63;34.73;95705.62;1823028;79;20995;-64
2022/05/27 12:42:45;;;;;;;3.58;1.60;;;;;;;26.87;33.11;95701.42;1822772;78;21046;-64
2022/05/27 12:45:26;;;;;;;1.67;1.50;;;;;;;26.96;34.59;95697.08;1823359;78;20979;-64
2022/05/27 12:47:54;;;;;;;1.82;1.12;;;;;;;27.76;35.21;95699.92;1821076;79;21126;-64
2022/05/27 12:50:34;;;;;;;3.02;1.30;;;;;;;28.32;33.48;95694.66;1823462;78;21049;-64